X  Chiuso Dati meteorologici dell'aviazione (METAR)     LEGR F.G.L. Airport Granada-Jaén Airport
Temperatura
7°C Temperatura
2°C Punto di rugiada
71% Umidità



Vento
11 KM/O
7 MPH
3 M/S
6 KTS



210°
SSW
Condizioni attuali

Chiaro Chiaro
Pressione 1017.95 (hPa) - 30.06 (inHg)
Visibilità 6 (miglio) - 9.7 (km)
Aeroporto
Codice-Aeroporto LEGR

Posizione: F.G.L. Airport Granada-Jaén Airport
Distanza: 138 (km)

Metar:
LEGR 012100Z 21006KT CAVOK 07/02 Q1018

Ore: 01-03-2024 22:00 CET